Time;durP1;ratioP1;P1;durP2;ratioP2;P2;SDS_P1;SDS_P2;PMS_P1;PMS_P2;Temp;Humidity;BMP_temperature;BMP_pressure;BME280_temperature;BME280_humidity;BME280_pressure;Samples;Min_cycle;Max_cycle;Signal;HPM_P1;HPM_P2
2023/06/14 00:00:48;;;;;;;10.93;2.90;;;16.60;99.90;;;;;;5043650;28;20045;-69
2023/06/14 00:03:17;;;;;;;6.00;2.83;;;16.60;99.90;;;;;;5041931;28;20501;-71
2023/06/14 00:05:43;;;;;;;12.20;3.05;;;16.60;99.90;;;;;;5041968;28;20029;-71
2023/06/14 00:08:10;;;;;;;5.13;3.00;;;16.50;99.90;;;;;;5043023;28;20026;-70
2023/06/14 00:10:36;;;;;;;7.53;3.10;;;16.50;99.90;;;;;;5043161;28;20022;-71
2023/06/14 00:13:03;;;;;;;9.88;2.95;;;16.50;99.90;;;;;;5042961;28;20029;-72
2023/06/14 00:15:30;;;;;;;5.65;2.85;;;16.40;99.90;;;;;;5043059;28;20026;-72
2023/06/14 00:17:59;;;;;;;11.38;3.80;;;16.40;99.90;;;;;;5042972;28;20025;-71
2023/06/14 00:20:25;;;;;;;6.93;3.33;;;16.40;99.90;;;;;;5042003;28;20057;-70
2023/06/14 00:22:51;;;;;;;8.93;3.17;;;16.40;99.90;;;;;;5042456;28;20048;-71
2023/06/14 00:25:17;;;;;;;6.15;3.00;;;16.40;99.90;;;;;;5042631;28;20053;-73
2023/06/14 00:27:43;;;;;;;14.25;3.08;;;16.30;99.90;;;;;;5043251;28;20025;-71
2023/06/14 00:30:09;;;;;;;8.27;3.15;;;16.30;99.90;;;;;;5042826;28;20052;-70
2023/06/14 00:32:34;;;;;;;6.53;3.15;;;16.30;99.90;;;;;;5042226;28;20042;-70
2023/06/14 00:35:00;;;;;;;6.40;3.28;;;16.30;99.90;;;;;;5042911;28;20026;-71
2023/06/14 00:37:25;;;;;;;6.95;3.20;;;16.10;99.90;;;;;;5041071;28;20096;-72
2023/06/14 00:39:51;;;;;;;8.80;4.03;;;16.20;99.90;;;;;;5042089;28;20075;-70
2023/06/14 00:42:25;;;;;;;9.43;3.33;;;16.10;99.90;;;;;;5041151;28;20030;-72
2023/06/14 00:44:50;;;;;;;8.98;3.28;;;16.10;99.90;;;;;;5041037;28;20026;-72
2023/06/14 00:47:16;;;;;;;8.77;3.55;;;16.10;99.90;;;;;;5042314;28;20057;-69
2023/06/14 00:49:42;;;;;;;9.05;3.33;;;16.00;99.90;;;;;;5042303;28;20057;-70
2023/06/14 00:52:07;;;;;;;6.95;3.33;;;15.90;99.90;;;;;;5039540;28;20042;-72
2023/06/14 00:54:33;;;;;;;8.90;3.45;;;16.00;99.90;;;;;;5040676;28;20025;-71
2023/06/14 00:56:59;;;;;;;10.75;3.63;;;15.90;99.90;;;;;;5041431;28;20057;-71
2023/06/14 00:59:25;;;;;;;6.85;3.60;;;16.00;99.90;;;;;;5041766;28;20026;-71
2023/06/14 01:01:50;;;;;;;8.05;3.55;;;15.90;99.90;;;;;;5042281;28;20026;-71
2023/06/14 01:04:16;;;;;;;9.45;3.65;;;15.90;99.90;;;;;;5041673;28;21007;-70
2023/06/14 01:06:56;;;;;;;8.82;3.70;;;15.80;99.90;;;;;;5042013;28;20033;-71
2023/06/14 01:09:53;;;;;;;11.80;3.80;;;15.80;99.90;;;;;;5041123;28;20364;-71
2023/06/14 01:12:42;;;;;;;14.65;3.72;;;15.80;99.90;;;;;;5041297;28;20048;-71
2023/06/14 01:15:09;;;;;;;10.48;4.15;;;15.70;99.90;;;;;;5041200;28;20029;-72
2023/06/14 01:17:35;;;;;;;8.98;3.80;;;15.70;99.90;;;;;;5040352;28;20075;-70
2023/06/14 01:20:02;;;;;;;11.88;3.40;;;15.70;99.90;;;;;;5042050;28;20029;-71
2023/06/14 01:22:29;;;;;;;9.57;3.85;;;15.70;99.90;;;;;;5041874;28;20036;-71
2023/06/14 01:24:55;;;;;;;8.13;3.80;;;15.60;99.90;;;;;;5041288;28;20075;-72
2023/06/14 01:27:32;;;;;;;7.72;4.00;;;15.70;99.90;;;;;;5041260;28;20995;-72
2023/06/14 01:29:59;;;;;;;15.35;4.57;;;15.50;99.90;;;;;;5039991;28;20075;-70
2023/06/14 01:32:26;;;;;;;9.00;4.40;;;15.50;99.90;;;;;;5042138;28;20034;-72
2023/06/14 01:34:52;;;;;;;8.13;3.90;;;15.50;99.90;;;;;;5041040;28;20034;-71
2023/06/14 01:37:20;;;;;;;14.27;3.80;;;15.50;99.90;;;;;;5041479;28;20025;-72
2023/06/14 01:39:47;;;;;;;10.32;4.20;;;15.50;99.90;;;;;;5041636;28;20017;-72
2023/06/14 01:42:13;;;;;;;8.65;4.10;;;15.50;99.90;;;;;;5041262;28;20084;-71
2023/06/14 01:44:41;;;;;;;5.90;3.72;;;15.40;99.90;;;;;;5040214;28;20028;-70
2023/06/14 01:47:07;;;;;;;9.77;3.85;;;15.40;99.90;;;;;;5039428;28;20090;-72
2023/06/14 01:49:35;;;;;;;11.60;3.90;;;15.40;99.90;;;;;;5038652;28;20044;-72
2023/06/14 01:52:00;;;;;;;8.18;4.00;;;15.30;99.90;;;;;;5040471;28;20034;-71
2023/06/14 01:54:27;;;;;;;10.02;4.30;;;15.30;99.90;;;;;;5041024;28;20540;-71
2023/06/14 01:56:53;;;;;;;8.70;4.20;;;15.30;99.90;;;;;;5040742;28;20049;-71
2023/06/14 01:59:18;;;;;;;9.65;4.18;;;15.30;99.90;;;;;;5040104;28;20024;-70
2023/06/14 02:01:46;;;;;;;10.93;4.60;;;15.30;99.90;;;;;;5040392;28;20041;-71
2023/06/14 02:04:11;;;;;;;12.60;4.80;;;15.30;99.90;;;;;;5038891;28;20029;-70
2023/06/14 02:06:37;;;;;;;12.55;4.30;;;15.30;99.90;;;;;;5040112;28;20164;-73
2023/06/14 02:09:03;;;;;;;12.55;4.57;;;15.20;99.90;;;;;;5039526;28;20032;-71
2023/06/14 02:11:29;;;;;;;10.18;4.22;;;15.20;99.90;;;;;;5041070;28;20080;-71
2023/06/14 02:13:56;;;;;;;10.77;4.18;;;15.20;99.90;;;;;;5041339;28;20033;-70
2023/06/14 02:16:22;;;;;;;9.35;5.32;;;15.10;99.90;;;;;;5040698;28;20037;-72
2023/06/14 02:18:48;;;;;;;12.13;4.60;;;15.20;99.90;;;;;;5040203;28;20085;-71
2023/06/14 02:21:14;;;;;;;9.48;4.63;;;15.10;99.90;;;;;;5040150;28;20021;-71
2023/06/14 02:23:40;;;;;;;7.90;4.30;;;15.10;99.90;;;;;;5038980;28;20032;-71
2023/06/14 02:26:05;;;;;;;9.10;4.90;;;15.10;99.90;;;;;;5041168;28;20033;-72
2023/06/14 02:28:31;;;;;;;12.27;5.10;;;15.10;99.90;;;;;;5041533;28;20025;-71
2023/06/14 02:30:57;;;;;;;8.38;4.80;;;15.00;99.90;;;;;;5038212;28;20168;-71
2023/06/14 02:33:23;;;;;;;8.80;4.97;;;15.00;99.90;;;;;;5039274;28;20041;-72
2023/06/14 02:35:48;;;;;;;8.98;4.55;;;15.00;99.90;;;;;;5040442;28;20033;-72
2023/06/14 02:38:14;;;;;;;6.25;4.35;;;14.90;99.90;;;;;;5039107;28;20105;-72
2023/06/14 02:40:42;;;;;;;9.45;4.30;;;15.00;99.90;;;;;;5040685;28;20041;-71
2023/06/14 02:43:07;;;;;;;11.82;4.78;;;14.90;99.90;;;;;;5041212;28;20097;-71
2023/06/14 02:45:33;;;;;;;12.68;5.07;;;14.90;99.90;;;;;;5040784;28;20140;-72
2023/06/14 02:47:59;;;;;;;13.98;4.80;;;14.90;99.90;;;;;;5040869;28;20026;-71
2023/06/14 02:50:24;;;;;;;10.55;4.50;;;14.90;99.90;;;;;;5039847;28;20642;-70
2023/06/14 02:52:50;;;;;;;7.35;4.60;;;14.90;99.90;;;;;;5039175;28;20537;-71
2023/06/14 02:55:16;;;;;;;11.45;5.10;;;14.90;99.90;;;;;;5039705;28;20045;-71
2023/06/14 02:57:41;;;;;;;12.93;4.80;;;14.90;99.90;;;;;;5041039;28;20040;-69
2023/06/14 03:00:12;;;;;;;11.30;4.95;;;14.90;99.90;;;;;;5041197;28;20414;-71
2023/06/14 03:02:38;;;;;;;9.48;4.70;;;14.90;99.90;;;;;;5040154;28;20398;-69
2023/06/14 03:05:06;;;;;;;9.60;5.05;;;14.80;99.90;;;;;;5039660;28;20026;-71
2023/06/14 03:07:32;;;;;;;9.73;4.93;;;14.80;99.90;;;;;;5040355;28;20022;-70
2023/06/14 03:09:58;;;;;;;12.32;5.20;;;14.90;99.90;;;;;;5041915;28;20018;-71
2023/06/14 03:12:23;;;;;;;10.63;5.07;;;14.80;99.90;;;;;;5041024;28;20033;-72
2023/06/14 03:14:50;;;;;;;15.90;5.10;;;14.80;99.90;;;;;;5041184;28;20029;-69
2023/06/14 03:17:17;;;;;;;9.75;5.60;;;14.70;99.90;;;;;;5040762;28;20025;-69
2023/06/14 03:19:43;;;;;;;12.07;5.25;;;14.60;99.90;;;;;;5044775;28;20036;-69
2023/06/14 03:22:08;;;;;;;12.07;5.40;;;14.70;99.90;;;;;;5044873;28;20033;-71
2023/06/14 03:24:36;;;;;;;12.02;5.13;;;14.70;99.90;;;;;;5043795;28;20052;-70
2023/06/14 03:27:02;;;;;;;14.95;5.00;;;14.70;99.90;;;;;;5043127;28;20021;-70
2023/06/14 03:29:28;;;;;;;10.63;5.05;;;14.70;99.90;;;;;;5044795;28;20025;-71
2023/06/14 03:32:03;;;;;;;14.23;5.03;;;14.70;99.90;;;;;;5044695;28;20025;-71
2023/06/14 03:34:30;;;;;;;14.95;5.10;;;14.60;99.90;;;;;;5042858;28;20032;-69
2023/06/14 03:36:55;;;;;;;10.55;5.03;;;14.60;99.90;;;;;;5044814;28;20030;-70
2023/06/14 03:39:21;;;;;;;8.88;5.18;;;14.60;99.90;;;;;;5043371;28;20032;-71
2023/06/14 03:41:47;;;;;;;11.10;5.18;;;14.60;99.90;;;;;;5043146;28;20064;-69
2023/06/14 03:44:15;;;;;;;10.52;5.10;;;14.60;99.90;;;;;;5044113;28;20022;-69
2023/06/14 03:46:41;;;;;;;11.20;5.32;;;14.60;99.90;;;;;;5043991;28;20021;-69
2023/06/14 03:49:07;;;;;;;11.20;4.68;;;14.50;99.90;;;;;;5043942;28;20073;-70
2023/06/14 03:51:34;;;;;;;14.27;5.60;;;14.50;99.90;;;;;;5044132;28;20037;-71
2023/06/14 03:54:00;;;;;;;13.00;5.75;;;14.50;99.90;;;;;;5043868;28;20040;-71
2023/06/14 03:56:26;;;;;;;10.07;5.15;;;14.50;99.90;;;;;;5042821;28;20390;-71
2023/06/14 03:58:52;;;;;;;12.45;5.28;;;14.50;99.90;;;;;;5043076;28;20466;-70
2023/06/14 04:01:18;;;;;;;9.63;5.18;;;14.50;99.90;;;;;;5044353;28;20024;-70
2023/06/14 04:03:43;;;;;;;12.13;5.47;;;14.50;99.90;;;;;;5043385;28;20025;-70
2023/06/14 04:06:09;;;;;;;11.60;5.40;;;14.60;99.90;;;;;;5044224;28;20049;-70
2023/06/14 04:08:35;;;;;;;8.98;4.97;;;14.60;99.90;;;;;;5044094;28;20076;-71
2023/06/14 04:11:01;;;;;;;10.30;5.13;;;14.60;99.90;;;;;;5043953;28;20045;-68
2023/06/14 04:13:26;;;;;;;13.27;5.05;;;14.60;99.90;;;;;;5044172;28;20026;-69
2023/06/14 04:15:52;;;;;;;10.27;5.80;;;14.60;99.90;;;;;;5043822;28;20128;-70
2023/06/14 04:18:19;;;;;;;14.50;5.40;;;14.60;99.90;;;;;;5043683;28;20030;-68
2023/06/14 04:20:45;;;;;;;11.88;5.38;;;14.70;99.90;;;;;;5043514;28;20021;-68
2023/06/14 04:23:12;;;;;;;9.27;5.20;;;14.70;99.90;;;;;;5043793;28;20045;-68
2023/06/14 04:25:38;;;;;;;9.43;5.53;;;14.70;99.90;;;;;;5043568;28;20044;-70
2023/06/14 04:28:04;;;;;;;9.35;5.03;;;14.80;99.90;;;;;;5043719;28;20017;-71
2023/06/14 04:30:31;;;;;;;9.80;5.57;;;14.70;99.90;;;;;;5041528;28;20025;-70
2023/06/14 04:32:57;;;;;;;9.68;5.15;;;14.70;99.90;;;;;;5043302;28;20068;-69
2023/06/14 04:35:25;;;;;;;10.63;5.10;;;14.70;99.90;;;;;;5043818;28;20021;-70
2023/06/14 04:37:53;;;;;;;9.43;4.88;;;14.70;99.90;;;;;;5043041;28;20052;-70
2023/06/14 04:40:18;;;;;;;12.25;5.80;;;14.70;99.90;;;;;;5043277;28;20068;-70
2023/06/14 04:42:44;;;;;;;11.50;5.57;;;14.70;99.90;;;;;;5043224;28;20026;-70
2023/06/14 04:45:10;;;;;;;9.90;5.90;;;14.80;99.90;;;;;;5043179;28;20048;-70
2023/06/14 04:47:37;;;;;;;12.45;5.50;;;14.80;99.90;;;;;;5042481;28;20040;-70
2023/06/14 04:50:03;;;;;;;16.02;5.60;;;14.80;99.90;;;;;;5042806;28;20383;-70
2023/06/14 04:52:29;;;;;;;10.85;5.57;;;14.80;99.90;;;;;;5043460;28;20025;-71
2023/06/14 04:54:55;;;;;;;13.05;5.68;;;14.80;99.90;;;;;;5043415;28;20493;-69
2023/06/14 04:57:22;;;;;;;13.77;5.60;;;14.90;99.90;;;;;;5041631;28;20029;-70
2023/06/14 04:59:48;;;;;;;8.63;5.15;;;14.90;99.90;;;;;;5042899;28;20022;-69
2023/06/14 05:02:14;;;;;;;12.65;5.45;;;14.90;99.90;;;;;;5041880;28;20029;-68
2023/06/14 05:04:39;;;;;;;12.48;5.40;;;15.00;99.90;;;;;;5043148;28;20530;-71
2023/06/14 05:07:09;;;;;;;8.07;5.60;;;15.10;99.90;;;;;;5042772;28;20029;-69
2023/06/14 05:09:35;;;;;;;12.35;5.13;;;15.10;99.90;;;;;;5041895;28;20033;-71
2023/06/14 05:12:01;;;;;;;10.93;5.57;;;15.10;99.90;;;;;;5042810;28;20042;-68
2023/06/14 05:14:26;;;;;;;10.80;5.03;;;15.10;99.90;;;;;;5042838;28;20040;-69
2023/06/14 05:16:53;;;;;;;10.70;5.45;;;15.10;99.90;;;;;;5042834;28;20022;-69
2023/06/14 05:19:20;;;;;;;9.35;5.10;;;15.20;99.90;;;;;;5042259;28;20060;-70
2023/06/14 05:21:47;;;;;;;10.82;5.38;;;15.20;99.90;;;;;;5042787;28;20071;-69
2023/06/14 05:24:13;;;;;;;13.20;5.30;;;15.30;99.90;;;;;;5042397;28;20052;-69
2023/06/14 05:26:38;;;;;;;9.90;5.45;;;15.30;99.90;;;;;;5042422;28;20029;-70
2023/06/14 05:29:04;;;;;;;9.45;5.30;;;15.30;99.90;;;;;;5042372;28;20036;-70
2023/06/14 05:31:30;;;;;;;9.25;5.35;;;15.40;99.90;;;;;;5042331;28;20124;-71
2023/06/14 05:33:55;;;;;;;13.25;5.72;;;15.40;99.90;;;;;;5042466;28;20029;-70
2023/06/14 05:36:21;;;;;;;18.33;5.82;;;15.50;99.90;;;;;;5041312;28;20112;-69
2023/06/14 05:38:46;;;;;;;12.68;5.55;;;15.50;99.90;;;;;;5042282;28;20029;-71
2023/06/14 05:41:12;;;;;;;10.38;5.53;;;15.60;99.90;;;;;;5042175;28;20030;-70
2023/06/14 05:43:38;;;;;;;14.05;5.53;;;15.60;99.90;;;;;;5042431;28;20358;-71
2023/06/14 05:46:03;;;;;;;8.38;5.45;;;15.70;99.90;;;;;;5041164;28;20028;-70
2023/06/14 05:48:30;;;;;;;10.40;5.55;;;15.80;99.90;;;;;;5042054;28;20045;-70
2023/06/14 05:50:56;;;;;;;10.82;5.13;;;15.80;99.90;;;;;;5040526;28;20072;-69
2023/06/14 05:53:22;;;;;;;11.50;5.75;;;15.90;99.90;;;;;;5042063;28;20651;-70
2023/06/14 05:55:47;;;;;;;14.07;5.13;;;16.00;99.90;;;;;;5039586;28;20053;-70
2023/06/14 05:58:13;;;;;;;10.32;5.50;;;16.10;99.90;;;;;;5042155;28;20025;-70
2023/06/14 06:00:39;;;;;;;10.13;5.43;;;16.20;99.90;;;;;;5041995;28;20828;-70
2023/06/14 06:03:07;;;;;;;15.60;5.35;;;16.20;99.90;;;;;;5041999;28;20055;-70
2023/06/14 06:05:33;;;;;;;9.60;5.55;;;16.30;99.90;;;;;;5041803;28;20025;-70
2023/06/14 06:07:58;;;;;;;6.63;4.60;;;16.30;99.90;;;;;;5042076;28;20030;-70
2023/06/14 06:10:24;;;;;;;11.07;5.00;;;16.40;99.90;;;;;;5042104;28;20033;-70
2023/06/14 06:12:51;;;;;;;12.10;4.72;;;16.40;99.90;;;;;;5040550;28;20042;-68
2023/06/14 06:15:18;;;;;;;12.70;4.95;;;16.60;99.90;;;;;;5041617;28;20438;-70
2023/06/14 06:17:44;;;;;;;16.33;4.95;;;16.60;99.90;;;;;;5041824;28;20479;-69
2023/06/14 06:20:11;;;;;;;11.13;4.60;;;16.70;99.90;;;;;;5041688;28;20052;-70
2023/06/14 06:22:37;;;;;;;7.07;4.30;;;16.80;99.90;;;;;;5041466;28;20536;-69
2023/06/14 06:25:03;;;;;;;8.77;4.32;;;16.90;99.90;;;;;;5041843;28;20049;-72
2023/06/14 06:27:28;;;;;;;9.13;4.45;;;17.00;99.90;;;;;;5041416;28;20030;-69
2023/06/14 06:29:54;;;;;;;11.88;4.50;;;17.10;99.90;;;;;;5038853;28;20033;-71
2023/06/14 06:32:20;;;;;;;6.78;4.25;;;17.10;99.90;;;;;;5041354;28;20072;-70
2023/06/14 06:34:46;;;;;;;10.30;3.88;;;17.30;99.90;;;;;;5041477;28;20033;-68
2023/06/14 06:37:11;;;;;;;9.43;4.38;;;17.30;99.90;;;;;;5041035;28;20032;-70
2023/06/14 06:39:37;;;;;;;11.20;4.28;;;17.40;99.90;;;;;;5041927;28;20026;-70
2023/06/14 06:42:03;;;;;;;6.05;3.60;;;17.50;99.90;;;;;;5040954;28;20068;-71
2023/06/14 06:44:28;;;;;;;7.28;3.85;;;17.60;99.90;;;;;;5041306;28;20052;-69
2023/06/14 06:46:54;;;;;;;9.30;3.80;;;17.60;99.90;;;;;;5040157;28;20034;-69
2023/06/14 06:49:20;;;;;;;7.50;3.70;;;17.70;99.90;;;;;;5038985;28;20099;-70
2023/06/14 06:52:00;;;;;;;9.95;3.50;;;17.80;99.90;;;;;;5041030;28;20383;-70
2023/06/14 06:54:26;;;;;;;7.10;3.20;;;17.90;99.90;;;;;;5045712;28;20024;-71
2023/06/14 06:56:51;;;;;;;6.05;3.35;;;18.00;99.90;;;;;;5043935;28;20029;-69
2023/06/14 06:59:17;;;;;;;5.60;3.22;;;18.20;99.90;;;;;;5045253;28;20029;-69
2023/06/14 07:01:42;;;;;;;8.30;3.72;;;18.20;99.90;;;;;;5044154;28;20017;-69
2023/06/14 07:04:08;;;;;;;9.27;3.70;;;18.30;99.90;;;;;;5045192;28;20059;-68
2023/06/14 07:06:34;;;;;;;8.07;3.60;;;18.30;99.90;;;;;;5043974;28;20048;-69
2023/06/14 07:09:01;;;;;;;6.28;3.40;;;18.40;99.90;;;;;;5045405;28;20536;-70
2023/06/14 07:11:27;;;;;;;6.55;3.53;;;18.50;99.90;;;;;;5045058;28;20591;-69
2023/06/14 07:13:52;;;;;;;7.00;3.42;;;18.50;99.90;;;;;;5045144;28;20036;-71
2023/06/14 07:16:18;;;;;;;7.07;3.10;;;18.60;99.90;;;;;;5044622;28;20052;-70
2023/06/14 07:18:44;;;;;;;7.60;3.15;;;18.70;99.90;;;;;;5043976;28;20021;-71
2023/06/14 07:21:09;;;;;;;5.68;3.30;;;18.70;99.90;;;;;;5044942;28;20029;-70
2023/06/14 07:23:35;;;;;;;10.70;3.00;;;18.80;99.90;;;;;;5045029;28;20026;-69
2023/06/14 07:26:01;;;;;;;12.48;2.80;;;18.90;99.90;;;;;;5044754;28;20016;-71
2023/06/14 07:28:26;;;;;;;10.15;3.10;;;19.00;99.90;;;;;;5045267;28;20095;-70
2023/06/14 07:30:52;;;;;;;9.88;3.05;;;19.10;99.90;;;;;;5045033;28;20026;-70
2023/06/14 07:33:17;;;;;;;8.00;3.28;;;19.20;99.90;;;;;;5044284;28;20871;-69
2023/06/14 07:35:43;;;;;;;6.28;2.88;;;19.20;99.90;;;;;;5044650;28;20035;-68
2023/06/14 07:38:08;;;;;;;11.93;3.13;;;19.30;99.90;;;;;;5044732;28;20017;-68
2023/06/14 07:40:34;;;;;;;7.68;3.08;;;19.30;99.90;;;;;;5044501;28;20030;-71
2023/06/14 07:43:01;;;;;;;8.63;3.00;;;19.40;99.90;;;;;;5044786;28;20044;-70
2023/06/14 07:45:26;;;;;;;6.60;3.00;;;19.50;99.90;;;;;;5043367;28;20387;-69
2023/06/14 07:47:52;;;;;;;5.93;3.03;;;19.60;99.90;;;;;;5044131;28;20051;-69
2023/06/14 07:50:18;;;;;;;6.40;2.80;;;19.70;99.90;;;;;;5044193;28;20021;-68
2023/06/14 07:52:45;;;;;;;5.28;2.67;;;19.70;99.90;;;;;;5044461;28;20080;-69
2023/06/14 07:55:10;;;;;;;6.68;2.85;;;19.70;99.90;;;;;;5044536;28;20048;-70
2023/06/14 07:57:36;;;;;;;5.15;2.88;;;19.90;99.90;;;;;;5043198;28;20021;-72
2023/06/14 08:00:06;;;;;;;5.13;2.80;;;19.90;99.90;;;;;;5044231;28;20528;-71
2023/06/14 08:02:31;;;;;;;7.25;2.50;;;20.00;99.90;;;;;;5044215;28;20111;-69
2023/06/14 08:04:57;;;;;;;5.72;2.67;;;20.10;99.90;;;;;;5042570;28;20462;-68
2023/06/14 08:07:22;;;;;;;5.28;2.60;;;20.10;99.90;;;;;;5042672;28;20077;-69
2023/06/14 08:09:48;;;;;;;7.40;2.47;;;20.20;99.90;;;;;;5042821;28;20032;-72
2023/06/14 08:12:13;;;;;;;3.78;2.40;;;20.30;99.90;;;;;;5044226;28;20068;-71
2023/06/14 08:14:39;;;;;;;5.43;2.70;;;20.40;99.90;;;;;;5043911;28;20037;-68
2023/06/14 08:17:05;;;;;;;4.45;2.60;;;20.50;99.90;;;;;;5042715;28;20022;-69
2023/06/14 08:19:31;;;;;;;4.78;2.75;;;20.60;99.90;;;;;;5042842;28;20609;-69
2023/06/14 08:21:57;;;;;;;6.88;2.60;;;20.70;99.90;;;;;;5043278;28;20419;-69
2023/06/14 08:24:26;;;;;;;5.45;2.33;;;20.70;99.90;;;;;;5044079;28;21011;-69
2023/06/14 08:26:53;;;;;;;6.80;2.97;;;20.80;99.90;;;;;;5043867;28;20021;-70
2023/06/14 08:29:19;;;;;;;4.03;3.00;;;20.90;99.90;;;;;;5043132;28;20036;-72
2023/06/14 08:31:44;;;;;;;3.83;2.25;;;20.90;99.90;;;;;;5042356;28;20041;-69
2023/06/14 08:34:10;;;;;;;6.18;2.80;;;20.90;99.90;;;;;;5042446;28;20022;-70
2023/06/14 08:36:36;;;;;;;8.50;2.65;;;21.00;99.90;;;;;;5043527;28;20033;-69
2023/06/14 08:39:02;;;;;;;9.07;2.47;;;21.00;99.90;;;;;;5043683;28;20029;-74
2023/06/14 08:41:29;;;;;;;5.25;2.63;;;21.10;99.90;;;;;;5043823;28;20063;-70
2023/06/14 08:43:56;;;;;;;10.45;2.40;;;21.10;99.90;;;;;;5043024;28;20032;-70
2023/06/14 08:46:26;;;;;;;4.05;2.15;;;21.20;99.90;;;;;;5043106;28;20026;-71
2023/06/14 08:48:56;;;;;;;4.20;2.58;;;21.30;99.90;;;;;;5041759;28;20045;-71
2023/06/14 08:51:24;;;;;;;9.45;2.38;;;21.40;99.90;;;;;;5042813;28;20033;-70
2023/06/14 08:53:57;;;;;;;7.68;2.30;;;21.50;99.90;;;;;;5043550;28;20033;-69
2023/06/14 08:56:30;;;;;;;3.80;2.45;;;21.50;99.90;;;;;;5043312;28;20037;-71
2023/06/14 08:58:57;;;;;;;4.43;2.42;;;21.60;99.90;;;;;;5042870;28;20048;-71
2023/06/14 09:01:24;;;;;;;3.00;2.17;;;21.70;99.90;;;;;;5043119;28;20017;-70
2023/06/14 09:03:50;;;;;;;8.48;2.80;;;21.80;99.90;;;;;;5043306;28;20028;-69
2023/06/14 09:06:16;;;;;;;8.60;2.50;;;22.00;99.90;;;;;;5043457;28;20025;-71
2023/06/14 09:08:46;;;;;;;8.00;2.60;;;22.00;99.90;;;;;;5042587;28;20049;-69
2023/06/14 09:11:16;;;;;;;5.65;2.80;;;22.20;99.90;;;;;;5042367;28;21057;-69
2023/06/14 09:13:42;;;;;;;5.30;2.72;;;22.30;99.90;;;;;;5042969;28;20085;-70
2023/06/14 09:16:08;;;;;;;5.32;2.72;;;22.40;99.90;;;;;;5041490;28;20022;-67
2023/06/14 09:18:39;;;;;;;4.45;2.63;;;22.50;99.90;;;;;;5043063;28;20032;-68
2023/06/14 09:21:08;;;;;;;4.35;2.65;;;22.60;99.90;;;;;;5042715;28;20529;-68
2023/06/14 09:23:38;;;;;;;5.68;2.80;;;22.70;99.90;;;;;;5042335;28;20029;-73
2023/06/14 09:26:07;;;;;;;4.10;2.55;;;22.70;99.90;;;;;;5042834;28;20045;-69
2023/06/14 09:28:33;;;;;;;7.88;2.80;;;22.80;99.90;;;;;;5042912;28;20033;-70
2023/06/14 09:31:01;;;;;;;3.72;2.70;;;22.80;99.90;;;;;;5041261;28;20017;-73
2023/06/14 09:33:27;;;;;;;5.78;2.88;;;22.90;99.90;;;;;;5042808;28;20124;-71
2023/06/14 09:35:54;;;;;;;10.75;2.80;;;22.90;99.90;;;;;;5042946;28;20049;-70
2023/06/14 09:38:20;;;;;;;7.55;3.33;;;23.00;99.90;;;;;;5042366;28;20109;-73
2023/06/14 09:40:46;;;;;;;6.07;2.90;;;23.00;99.90;;;;;;5042543;28;20030;-73
2023/06/14 09:43:11;;;;;;;4.78;3.00;;;23.10;99.90;;;;;;5042652;28;20033;-69
2023/06/14 09:45:39;;;;;;;5.43;3.00;;;23.10;99.90;;;;;;5041989;28;20025;-73
2023/06/14 09:48:08;;;;;;;6.72;3.03;;;23.10;99.90;;;;;;5042217;28;20089;-70
2023/06/14 09:50:34;;;;;;;10.63;3.10;;;23.20;99.90;;;;;;5042875;28;20689;-68
2023/06/14 09:53:05;;;;;;;4.93;3.03;;;23.20;99.90;;;;;;5041535;28;20057;-69
2023/06/14 09:55:35;;;;;;;8.00;2.70;;;23.40;99.90;;;;;;5042233;28;20065;-70
2023/06/14 09:58:05;;;;;;;6.85;2.90;;;23.40;99.90;;;;;;5041936;28;20049;-72
2023/06/14 10:00:33;;;;;;;4.65;2.80;;;23.50;99.90;;;;;;5041791;28;20029;-72
2023/06/14 10:03:06;;;;;;;8.32;2.88;;;23.50;99.90;;;;;;5042231;28;20064;-71
2023/06/14 10:05:35;;;;;;;4.72;2.85;;;23.50;99.90;;;;;;5041884;28;20030;-70
2023/06/14 10:08:05;;;;;;;5.05;2.90;;;23.60;99.90;;;;;;5041713;28;20026;-69
2023/06/14 10:10:31;;;;;;;7.93;2.92;;;23.70;99.90;;;;;;5040352;28;20083;-69
2023/06/14 10:12:56;;;;;;;8.00;2.88;;;23.70;99.90;;;;;;5042154;28;20041;-71
2023/06/14 10:15:41;;;;;;;5.40;3.20;;;23.70;99.90;;;;;;5042199;28;20765;-70
2023/06/14 10:18:22;;;;;;;9.45;3.50;;;23.70;99.90;;;;;;5041012;28;20029;-70
2023/06/14 10:20:58;;;;;;;6.63;2.95;;;23.80;99.90;;;;;;5041547;28;20038;-73
2023/06/14 10:23:25;;;;;;;6.38;3.40;;;23.70;99.90;;;;;;5040829;28;20030;-70
2023/06/14 10:25:57;;;;;;;5.28;3.15;;;23.70;99.90;;;;;;5041461;28;20053;-70
2023/06/14 10:28:24;;;;;;;4.72;2.97;;;23.70;99.90;;;;;;5040911;28;20045;-71
2023/06/14 10:31:09;;;;;;;4.85;2.90;;;23.80;99.90;;;;;;5041349;28;20109;-71
2023/06/14 10:33:56;;;;;;;6.93;2.83;;;23.80;99.90;;;;;;5040788;28;20048;-75
2023/06/14 10:36:22;;;;;;;9.35;3.30;;;23.90;99.90;;;;;;5039614;28;20064;-71
2023/06/14 10:39:02;;;;;;;9.05;3.60;;;24.00;99.90;;;;;;5041859;28;20034;-71
2023/06/14 10:41:28;;;;;;;7.65;3.20;;;24.00;99.90;;;;;;5040654;28;20056;-71
2023/06/14 10:44:12;;;;;;;7.65;3.38;;;24.10;99.90;;;;;;5039947;28;20059;-69
2023/06/14 10:46:39;;;;;;;7.35;3.22;;;24.10;99.90;;;;;;5041552;28;20026;-69
2023/06/14 10:49:06;;;;;;;11.63;3.47;;;24.00;99.90;;;;;;5039956;28;20053;-71
2023/06/14 10:51:46;;;;;;;8.13;3.40;;;24.00;99.90;;;;;;5041288;28;20073;-71
2023/06/14 10:54:16;;;;;;;10.00;3.40;;;24.00;99.90;;;;;;5041714;28;20052;-70
2023/06/14 10:56:54;;;;;;;8.35;3.47;;;24.00;99.90;;;;;;5041304;28;20376;-69
2023/06/14 10:59:20;;;;;;;9.45;3.45;;;24.10;99.90;;;;;;5040410;28;20089;-69
2023/06/14 11:02:05;;;;;;;11.10;3.45;;;24.10;99.90;;;;;;5039803;28;20033;-70
2023/06/14 11:04:51;;;;;;;11.27;3.38;;;24.20;99.90;;;;;;5041532;28;20078;-69
2023/06/14 11:07:45;;;;;;;7.55;3.17;;;24.10;99.90;;;;;;5040185;28;20033;-69
2023/06/14 11:10:33;;;;;;;5.65;3.10;;;24.30;99.90;;;;;;5040898;28;20032;-74
2023/06/14 11:12:59;;;;;;;8.10;3.10;;;24.60;99.90;;;;;;5041588;28;20046;-69
2023/06/14 11:15:32;;;;;;;11.18;3.47;;;24.70;99.90;;;;;;5041069;28;20026;-70
2023/06/14 11:18:00;;;;;;;8.32;3.28;;;24.70;99.90;;;;;;5041294;28;20017;-69
2023/06/14 11:20:26;;;;;;;7.55;3.30;;;24.80;99.90;;;;;;5040307;28;20033;-72
2023/06/14 11:22:53;;;;;;;6.25;3.20;;;25.00;99.90;;;;;;5041136;28;20033;-73
2023/06/14 11:25:19;;;;;;;8.48;3.20;;;25.10;99.90;;;;;;5041080;28;20096;-70
2023/06/14 11:27:45;;;;;;;5.45;3.10;;;25.00;99.90;;;;;;5039749;28;20582;-69
2023/06/14 11:30:11;;;;;;;6.13;3.22;;;25.10;99.90;;;;;;5033886;28;20104;-69
2023/06/14 11:32:38;;;;;;;8.43;3.35;;;25.20;99.90;;;;;;5037707;28;20034;-72
2023/06/14 11:35:04;;;;;;;6.22;3.35;;;25.30;99.90;;;;;;5040245;28;20024;-68
2023/06/14 11:37:34;;;;;;;6.20;3.42;;;25.20;99.90;;;;;;5039497;28;20028;-70
2023/06/14 11:40:01;;;;;;;7.90;3.40;;;25.10;99.90;;;;;;5044656;28;20022;-72
2023/06/14 11:42:28;;;;;;;9.93;3.75;;;24.90;99.90;;;;;;5043662;28;20024;-71
2023/06/14 11:44:54;;;;;;;9.63;3.55;;;24.80;99.90;;;;;;5044425;28;20466;-70
2023/06/14 11:47:20;;;;;;;11.23;3.70;;;24.70;99.90;;;;;;5042359;28;20025;-71
2023/06/14 11:49:46;;;;;;;9.10;3.25;;;24.50;99.90;;;;;;5042284;28;20053;-71
2023/06/14 11:52:12;;;;;;;4.15;2.97;;;24.60;99.90;;;;;;5043749;28;20041;-70
2023/06/14 11:54:40;;;;;;;5.82;3.50;;;24.80;99.90;;;;;;5044634;28;20538;-69
2023/06/14 11:57:10;;;;;;;5.13;3.30;;;25.10;99.90;;;;;;5042677;28;20028;-70
2023/06/14 11:59:40;;;;;;;5.70;3.22;;;25.30;99.90;;;;;;5042740;28;20028;-69
2023/06/14 12:02:06;;;;;;;7.72;3.85;;;25.20;99.90;;;;;;5043249;28;20025;-72
2023/06/14 12:04:32;;;;;;;8.93;3.42;;;25.10;99.90;;;;;;5042959;28;20033;-70
2023/06/14 12:07:15;;;;;;;6.88;3.17;;;25.10;99.90;;;;;;5043733;28;20047;-71
2023/06/14 12:10:07;;;;;;;9.35;3.38;;;25.40;99.90;;;;;;5042863;28;20386;-71
2023/06/14 12:12:36;;;;;;;8.77;3.42;;;25.40;99.00;;;;;;5042962;28;20033;-72
2023/06/14 12:15:05;;;;;;;11.23;3.72;;;25.20;99.90;;;;;;5042503;28;20374;-69
2023/06/14 12:17:36;;;;;;;10.82;3.67;;;24.90;99.90;;;;;;5043193;28;20021;-70
2023/06/14 12:20:16;;;;;;;4.70;3.10;;;24.80;99.90;;;;;;5041754;28;20105;-73
2023/06/14 12:22:52;;;;;;;8.95;3.50;;;25.00;99.10;;;;;;5043198;28;20037;-69
2023/06/14 12:25:27;;;;;;;9.55;3.33;;;25.10;99.90;;;;;;5035337;28;20033;-69
2023/06/14 12:27:57;;;;;;;8.35;3.40;;;25.00;99.90;;;;;;5042694;28;20736;-69
2023/06/14 12:30:23;;;;;;;5.68;3.47;;;25.00;99.90;;;;;;5043401;28;20033;-70
2023/06/14 12:32:48;;;;;;;6.55;3.33;;;25.00;99.90;;;;;;5043575;28;20525;-74
2023/06/14 12:35:15;;;;;;;7.50;3.13;;;25.00;99.90;;;;;;5043609;28;20025;-71
2023/06/14 12:37:41;;;;;;;6.25;3.40;;;25.00;99.90;;;;;;5043114;28;20053;-68
2023/06/14 12:40:07;;;;;;;4.43;3.50;;;24.80;99.90;;;;;;5043474;28;20079;-69
2023/06/14 12:42:36;;;;;;;4.35;3.20;;;24.90;99.90;;;;;;5042046;28;20459;-71
2023/06/14 12:45:02;;;;;;;7.53;3.42;;;25.10;99.90;;;;;;5043242;28;20025;-69